createdAt,value
2018-08-16T00:00:15.735Z,53.83
2018-08-16T00:01:16.205Z,53.87
2018-08-16T00:02:16.679Z,53.93
2018-08-16T00:03:17.157Z,53.96
2018-08-16T00:04:17.682Z,54.02
2018-08-16T00:05:18.102Z,54.09
2018-08-16T00:06:18.579Z,54.14
2018-08-16T00:07:19.054Z,54.20
2018-08-16T00:08:19.528Z,54.25
2018-08-16T00:09:20.002Z,54.30
2018-08-16T00:10:20.478Z,54.33
2018-08-16T00:11:20.951Z,54.32
2018-08-16T00:12:21.459Z,54.36
2018-08-16T00:13:21.897Z,54.38
2018-08-16T00:14:22.422Z,54.40
2018-08-16T00:15:22.845Z,54.41
2018-08-16T00:16:23.317Z,54.42
2018-08-16T00:17:23.793Z,54.44
2018-08-16T00:18:24.266Z,54.42
2018-08-16T00:19:24.743Z,54.42
2018-08-16T00:20:25.212Z,54.42
2018-08-16T00:21:25.684Z,54.40
2018-08-16T00:22:26.156Z,54.39
2018-08-16T00:23:26.630Z,54.37
2018-08-16T00:24:27.154Z,54.35
2018-08-16T00:25:27.581Z,54.34
2018-08-16T00:26:28.048Z,54.32
2018-08-16T00:27:28.520Z,54.30
2018-08-16T00:28:28.992Z,54.28
2018-08-16T00:29:29.516Z,54.24
2018-08-16T00:30:29.935Z,54.22
2018-08-16T00:31:30.408Z,54.17
2018-08-16T00:32:30.879Z,54.17
2018-08-16T00:33:31.351Z,54.09
2018-08-16T00:34:31.824Z,54.04
2018-08-16T00:35:32.295Z,54.00
2018-08-16T00:36:32.768Z,53.96
2018-08-16T00:37:33.235Z,53.92
2018-08-16T00:38:33.707Z,53.88
2018-08-16T00:39:34.180Z,53.82
2018-08-16T00:40:34.651Z,53.78
2018-08-16T00:41:35.123Z,53.82
2018-08-16T00:42:35.592Z,53.94
2018-08-16T00:43:36.062Z,54.07
2018-08-16T00:44:36.586Z,54.19
2018-08-16T00:45:37.005Z,54.29
2018-08-16T00:46:37.475Z,54.48
2018-08-16T00:47:37.944Z,54.55
2018-08-16T00:48:38.417Z,54.66
2018-08-16T00:49:38.894Z,54.72
2018-08-16T00:50:39.357Z,54.75
2018-08-16T00:51:39.829Z,54.80
2018-08-16T00:52:40.307Z,54.81
2018-08-16T00:53:40.769Z,54.80
2018-08-16T00:54:41.242Z,54.81
2018-08-16T00:55:41.714Z,54.76
2018-08-16T00:56:42.184Z,54.71
2018-08-16T00:57:42.654Z,54.63
2018-08-16T00:58:43.127Z,54.54
2018-08-16T00:59:43.598Z,54.48
2018-08-16T01:00:44.071Z,54.41
2018-08-16T01:01:44.542Z,54.35
2018-08-16T01:02:45.019Z,54.28
2018-08-16T01:03:45.491Z,54.23
2018-08-16T01:04:46.012Z,54.19
2018-08-16T01:05:46.437Z,54.16
2018-08-16T01:06:46.906Z,54.14
2018-08-16T01:07:47.378Z,54.12
2018-08-16T01:08:47.853Z,54.02
2018-08-16T01:09:48.324Z,53.99
2018-08-16T01:10:48.806Z,53.93
2018-08-16T01:11:49.273Z,53.90
2018-08-16T01:12:49.752Z,53.85
2018-08-16T01:13:50.221Z,53.86
2018-08-16T01:14:50.694Z,53.87
2018-08-16T01:15:51.171Z,53.87
2018-08-16T01:16:51.645Z,53.92
2018-08-16T01:17:52.118Z,53.97
2018-08-16T01:18:52.592Z,54.04
2018-08-16T01:19:53.071Z,54.11
2018-08-16T01:20:53.543Z,54.19
2018-08-16T01:21:54.017Z,54.28
2018-08-16T01:22:54.495Z,54.35
2018-08-16T01:23:54.968Z,54.41
2018-08-16T01:24:55.444Z,54.47
2018-08-16T01:25:55.916Z,54.51
2018-08-16T01:26:56.392Z,54.61
2018-08-16T01:27:56.865Z,54.68
2018-08-16T01:28:57.339Z,54.74
2018-08-16T01:29:57.812Z,54.81
2018-08-16T01:30:58.289Z,54.88
2018-08-16T01:31:58.761Z,54.95
2018-08-16T01:32:59.239Z,55.01
2018-08-16T01:33:59.708Z,55.03
2018-08-16T01:35:00.184Z,55.06
2018-08-16T01:36:00.657Z,55.08
2018-08-16T01:37:01.130Z,55.11
2018-08-16T01:38:01.604Z,55.14
2018-08-16T01:39:02.076Z,55.16
2018-08-16T01:40:02.550Z,55.17
2018-08-16T01:41:03.027Z,55.17
2018-08-16T01:42:03.494Z,55.17
2018-08-16T01:43:03.969Z,55.14
2018-08-16T01:44:04.440Z,55.14
2018-08-16T01:45:04.915Z,55.11
2018-08-16T01:46:05.383Z,55.09
2018-08-16T01:47:05.857Z,55.07
2018-08-16T01:48:06.328Z,55.04
2018-08-16T01:49:06.803Z,55.01
2018-08-16T01:50:07.273Z,54.98
2018-08-16T01:51:07.744Z,54.96
2018-08-16T01:52:08.217Z,54.93
2018-08-16T01:53:08.686Z,54.88
2018-08-16T01:54:09.159Z,54.84
2018-08-16T01:55:09.629Z,54.81
2018-08-16T01:56:10.101Z,54.85
2018-08-16T01:57:10.571Z,54.97
2018-08-16T01:58:11.040Z,55.06
2018-08-16T01:59:11.514Z,55.17
2018-08-16T02:00:11.984Z,55.27
2018-08-16T02:01:12.455Z,55.37
2018-08-16T02:02:12.926Z,55.43
2018-08-16T02:03:13.401Z,55.47
2018-08-16T02:04:13.867Z,55.49
2018-08-16T02:05:14.351Z,55.47
2018-08-16T02:06:14.807Z,55.48
2018-08-16T02:07:15.278Z,55.46
2018-08-16T02:08:15.749Z,55.46
2018-08-16T02:09:16.226Z,55.40
2018-08-16T02:10:16.689Z,55.34
2018-08-16T02:11:17.161Z,55.27
2018-08-16T02:12:17.634Z,55.14
2018-08-16T02:13:18.105Z,55.04
2018-08-16T02:14:18.581Z,54.93
2018-08-16T02:15:19.048Z,54.81
2018-08-16T02:16:19.519Z,54.73
2018-08-16T02:17:19.990Z,54.65
2018-08-16T02:18:20.464Z,54.57
2018-08-16T02:19:20.934Z,54.50
2018-08-16T02:20:21.410Z,54.45
2018-08-16T02:21:21.880Z,54.40
2018-08-16T02:22:22.353Z,54.37
2018-08-16T02:23:22.826Z,54.36
2018-08-16T02:24:23.299Z,54.34
2018-08-16T02:25:23.771Z,54.26
2018-08-16T02:26:24.248Z,54.23
2018-08-16T02:27:24.719Z,54.18
2018-08-16T02:28:25.193Z,54.16
2018-08-16T02:29:25.668Z,54.14
2018-08-16T02:30:26.190Z,54.17
2018-08-16T02:31:26.616Z,54.19
2018-08-16T02:32:27.090Z,54.19
2018-08-16T02:33:27.578Z,54.25
2018-08-16T02:34:28.040Z,54.31
2018-08-16T02:35:28.514Z,54.36
2018-08-16T02:36:28.990Z,54.44
2018-08-16T02:37:29.464Z,54.51
2018-08-16T02:38:29.936Z,54.58
2018-08-16T02:39:30.412Z,54.64
2018-08-16T02:40:30.886Z,54.70
2018-08-16T02:41:31.362Z,54.76
2018-08-16T02:42:31.834Z,54.83
2018-08-16T02:43:32.309Z,54.90
2018-08-16T02:44:32.783Z,54.97
2018-08-16T02:45:33.259Z,55.02
2018-08-16T02:46:33.731Z,55.09
2018-08-16T02:47:34.204Z,55.15
2018-08-16T02:48:34.680Z,55.23
2018-08-16T02:49:35.152Z,55.29
2018-08-16T02:50:35.624Z,55.32
2018-08-16T02:51:36.098Z,55.37
2018-08-16T02:52:36.576Z,55.39
2018-08-16T02:53:37.046Z,55.42
2018-08-16T02:54:37.516Z,55.44
2018-08-16T02:55:37.990Z,55.46
2018-08-16T02:56:38.462Z,55.47
2018-08-16T02:57:38.937Z,55.48
2018-08-16T02:58:39.407Z,55.49
2018-08-16T02:59:39.883Z,55.50
2018-08-16T03:00:40.353Z,55.49
2018-08-16T03:01:40.826Z,55.49
2018-08-16T03:02:41.294Z,55.47
2018-08-16T03:03:41.766Z,55.46
2018-08-16T03:04:42.239Z,55.43
2018-08-16T03:05:42.713Z,55.40
2018-08-16T03:06:43.181Z,55.38
2018-08-16T03:07:43.656Z,55.41
2018-08-16T03:08:44.132Z,55.50
2018-08-16T03:09:44.594Z,55.60
2018-08-16T03:10:45.066Z,55.70
2018-08-16T03:11:45.538Z,55.79
2018-08-16T03:12:46.010Z,55.88
2018-08-16T03:13:46.481Z,55.91
2018-08-16T03:14:46.951Z,55.96
2018-08-16T03:15:47.419Z,55.96
2018-08-16T03:16:47.889Z,55.95
2018-08-16T03:17:48.360Z,55.94
2018-08-16T03:18:48.831Z,55.95
2018-08-16T03:19:49.301Z,55.94
2018-08-16T03:20:49.773Z,55.87
2018-08-16T03:21:50.245Z,55.78
2018-08-16T03:22:50.714Z,55.67
2018-08-16T03:23:51.185Z,55.56
2018-08-16T03:24:51.657Z,55.47
2018-08-16T03:25:52.127Z,55.35
2018-08-16T03:26:52.599Z,55.23
2018-08-16T03:27:53.072Z,55.13
2018-08-16T03:28:53.541Z,55.06
2018-08-16T03:29:54.016Z,54.97
2018-08-16T03:30:54.489Z,54.90
2018-08-16T03:31:54.958Z,54.81
2018-08-16T03:32:55.433Z,54.76
2018-08-16T03:33:55.902Z,54.72
2018-08-16T03:34:56.374Z,54.67
2018-08-16T03:35:56.848Z,54.62
2018-08-16T03:36:57.323Z,54.64
2018-08-16T03:37:57.794Z,54.63
2018-08-16T03:38:58.267Z,54.57
2018-08-16T03:39:58.740Z,54.52
2018-08-16T03:40:59.216Z,54.50
2018-08-16T03:41:59.689Z,54.47
2018-08-16T03:43:00.162Z,54.44
2018-08-16T03:44:00.637Z,54.46
2018-08-16T03:45:01.110Z,54.48
2018-08-16T03:46:01.587Z,54.52
2018-08-16T03:47:02.059Z,54.58
2018-08-16T03:48:02.541Z,54.62
2018-08-16T03:49:03.013Z,54.70
2018-08-16T03:50:03.484Z,54.78
2018-08-16T03:51:03.957Z,54.84
2018-08-16T03:52:04.432Z,54.93
2018-08-16T03:53:04.909Z,54.98
2018-08-16T03:54:05.382Z,55.04
2018-08-16T03:55:05.856Z,55.11
2018-08-16T03:56:06.331Z,55.18
2018-08-16T03:57:06.804Z,55.24
2018-08-16T03:58:07.280Z,55.32
2018-08-16T03:59:07.749Z,55.39
2018-08-16T04:00:08.227Z,55.47
2018-08-16T04:01:08.698Z,55.55
2018-08-16T04:02:09.172Z,55.62
2018-08-16T04:03:09.647Z,55.67
2018-08-16T04:04:10.118Z,55.72
2018-08-16T04:05:10.592Z,55.74
2018-08-16T04:06:11.067Z,55.76
2018-08-16T04:07:11.536Z,55.79
2018-08-16T04:08:12.012Z,55.81
2018-08-16T04:09:12.482Z,55.83
2018-08-16T04:10:12.955Z,55.82
2018-08-16T04:11:13.427Z,55.84
2018-08-16T04:12:13.899Z,55.83
2018-08-16T04:13:14.372Z,55.80
2018-08-16T04:14:14.842Z,55.80
2018-08-16T04:15:15.316Z,55.79
2018-08-16T04:16:15.786Z,55.78
2018-08-16T04:17:16.258Z,55.76
2018-08-16T04:18:16.730Z,55.81
2018-08-16T04:19:17.198Z,55.90
2018-08-16T04:20:17.673Z,56.00
2018-08-16T04:21:18.141Z,56.08
2018-08-16T04:22:18.612Z,56.16
2018-08-16T04:23:19.083Z,56.23
2018-08-16T04:24:19.554Z,56.27
2018-08-16T04:25:20.024Z,56.28
2018-08-16T04:26:20.496Z,56.26
2018-08-16T04:27:20.965Z,56.23
2018-08-16T04:28:21.434Z,56.19
2018-08-16T04:29:21.906Z,56.17
2018-08-16T04:30:22.378Z,56.13
2018-08-16T04:31:23.049Z,56.06
2018-08-16T04:32:23.319Z,55.96
2018-08-16T04:33:23.790Z,55.82
2018-08-16T04:34:24.260Z,55.71
2018-08-16T04:35:24.739Z,55.56
2018-08-16T04:36:25.202Z,55.42
2018-08-16T04:37:25.673Z,55.27
2018-08-16T04:38:26.144Z,55.16
2018-08-16T04:39:26.616Z,55.05
2018-08-16T04:40:27.088Z,54.96
2018-08-16T04:41:27.625Z,54.87
2018-08-16T04:42:28.031Z,54.79
2018-08-16T04:43:28.503Z,54.69
2018-08-16T04:44:28.976Z,54.63
2018-08-16T04:45:29.449Z,54.57
2018-08-16T04:46:29.923Z,54.53
2018-08-16T04:47:30.394Z,54.46
2018-08-16T04:48:30.891Z,54.44
2018-08-16T04:49:31.340Z,54.44
2018-08-16T04:50:31.813Z,54.42
2018-08-16T04:51:32.285Z,54.40
2018-08-16T04:52:32.760Z,54.33
2018-08-16T04:53:33.233Z,54.29
2018-08-16T04:54:33.709Z,54.22
2018-08-16T04:55:34.184Z,54.22
2018-08-16T04:56:34.657Z,54.21
2018-08-16T04:57:35.131Z,54.19
2018-08-16T04:58:35.606Z,54.22
2018-08-16T04:59:36.078Z,54.25
2018-08-16T05:00:36.554Z,54.28
2018-08-16T05:01:37.029Z,54.31
2018-08-16T05:02:37.506Z,54.35
2018-08-16T05:03:37.979Z,54.36
2018-08-16T05:04:38.451Z,54.41
2018-08-16T05:05:38.925Z,54.44
2018-08-16T05:06:39.404Z,54.48
2018-08-16T05:07:39.873Z,54.51
2018-08-16T05:08:40.348Z,54.54
2018-08-16T05:09:40.824Z,54.60
2018-08-16T05:10:41.297Z,54.64
2018-08-16T05:11:41.771Z,54.67
2018-08-16T05:12:42.243Z,54.73
2018-08-16T05:13:42.718Z,54.76
2018-08-16T05:14:43.192Z,54.77
2018-08-16T05:15:43.666Z,54.79
2018-08-16T05:16:44.140Z,54.77
2018-08-16T05:17:44.611Z,54.77
2018-08-16T05:18:45.092Z,54.74
2018-08-16T05:19:45.559Z,54.73
2018-08-16T05:20:46.031Z,54.68
2018-08-16T05:21:46.508Z,54.66
2018-08-16T05:22:46.977Z,54.63
2018-08-16T05:23:47.513Z,54.61
2018-08-16T05:24:47.923Z,54.59
2018-08-16T05:25:48.392Z,54.56
2018-08-16T05:26:48.863Z,54.52
2018-08-16T05:27:49.333Z,54.47
2018-08-16T05:28:49.806Z,54.42
2018-08-16T05:29:50.278Z,54.34
2018-08-16T05:30:50.750Z,54.31
2018-08-16T05:31:51.218Z,54.34
2018-08-16T05:32:51.692Z,54.42
2018-08-16T05:33:52.163Z,54.46
2018-08-16T05:34:52.634Z,54.51
2018-08-16T05:35:53.102Z,54.52
2018-08-16T05:36:53.574Z,54.54
2018-08-16T05:37:54.046Z,54.54
2018-08-16T05:38:54.522Z,54.51
2018-08-16T05:39:54.985Z,54.46
2018-08-16T05:40:55.459Z,54.41
2018-08-16T05:41:55.930Z,54.35
2018-08-16T05:42:56.418Z,54.30
2018-08-16T05:43:56.871Z,54.18
2018-08-16T05:44:57.339Z,54.07
2018-08-16T05:45:57.812Z,53.95
2018-08-16T05:46:58.283Z,53.86
2018-08-16T05:47:58.754Z,53.72
2018-08-16T05:48:59.227Z,53.58
2018-08-16T05:49:59.698Z,53.46
2018-08-16T05:51:00.169Z,53.33
2018-08-16T05:52:00.640Z,53.20
2018-08-16T05:53:01.111Z,53.12
2018-08-16T05:54:01.585Z,53.01
2018-08-16T05:55:02.061Z,52.94
2018-08-16T05:56:02.529Z,52.89
2018-08-16T05:57:03.052Z,52.84
2018-08-16T05:58:03.474Z,52.78
2018-08-16T05:59:03.948Z,52.75
2018-08-16T06:00:04.422Z,52.68
2018-08-16T06:01:04.894Z,52.58
2018-08-16T06:02:05.369Z,52.46
2018-08-16T06:03:05.846Z,52.38
2018-08-16T06:04:06.315Z,52.30
2018-08-16T06:05:06.792Z,52.26
2018-08-16T06:06:07.267Z,52.22
2018-08-16T06:07:07.740Z,52.18
2018-08-16T06:08:08.214Z,52.17
2018-08-16T06:09:08.690Z,52.15
2018-08-16T06:10:09.163Z,52.20
2018-08-16T06:11:09.641Z,52.20
2018-08-16T06:12:10.113Z,52.22
2018-08-16T06:13:10.589Z,52.23
2018-08-16T06:14:11.065Z,52.28
2018-08-16T06:15:11.543Z,52.32
2018-08-16T06:16:12.016Z,52.36
2018-08-16T06:17:12.541Z,52.38
2018-08-16T06:18:12.965Z,52.39
2018-08-16T06:19:13.440Z,52.44
2018-08-16T06:20:13.913Z,52.47
2018-08-16T06:21:14.392Z,52.51
2018-08-16T06:22:14.864Z,52.54
2018-08-16T06:23:15.339Z,52.59
2018-08-16T06:24:15.812Z,52.63
2018-08-16T06:25:16.285Z,52.66
2018-08-16T06:26:16.759Z,52.70
2018-08-16T06:27:17.233Z,52.71
2018-08-16T06:28:17.705Z,52.72
2018-08-16T06:29:18.180Z,52.71
2018-08-16T06:30:18.658Z,52.70
2018-08-16T06:31:19.131Z,52.68
2018-08-16T06:32:19.601Z,52.65
2018-08-16T06:33:20.076Z,52.61
2018-08-16T06:34:20.548Z,52.59
2018-08-16T06:35:21.022Z,52.57
2018-08-16T06:36:21.493Z,52.55
2018-08-16T06:37:21.965Z,52.52
2018-08-16T06:38:22.438Z,52.50
2018-08-16T06:39:22.918Z,52.47
2018-08-16T06:40:23.386Z,52.42
2018-08-16T06:41:23.858Z,52.42
2018-08-16T06:42:24.329Z,52.39
2018-08-16T06:43:24.802Z,52.35
2018-08-16T06:44:25.273Z,52.32
2018-08-16T06:45:25.747Z,52.27
2018-08-16T06:46:26.287Z,52.22
2018-08-16T06:47:26.691Z,52.15
2018-08-16T06:48:27.163Z,52.10
2018-08-16T06:49:27.634Z,52.04
2018-08-16T06:50:28.107Z,51.99
2018-08-16T06:51:28.580Z,51.92
2018-08-16T06:52:29.059Z,51.88
2018-08-16T06:53:29.527Z,51.81
2018-08-16T06:54:29.991Z,51.74
2018-08-16T06:55:30.464Z,51.80
2018-08-16T06:56:30.935Z,51.83
2018-08-16T06:57:31.406Z,51.86
2018-08-16T06:58:31.881Z,51.86
2018-08-16T06:59:32.348Z,51.87
2018-08-16T07:00:32.820Z,51.90
2018-08-16T07:01:33.292Z,51.93
2018-08-16T07:02:33.764Z,51.96
2018-08-16T07:03:34.235Z,51.97
2018-08-16T07:04:34.711Z,51.96
2018-08-16T07:05:35.179Z,51.93
2018-08-16T07:06:35.651Z,51.90
2018-08-16T07:07:36.124Z,51.88
2018-08-16T07:08:36.596Z,51.87
2018-08-16T07:09:37.068Z,51.87
2018-08-16T07:10:37.542Z,51.84
2018-08-16T07:11:38.016Z,51.82
2018-08-16T07:12:38.491Z,51.78
2018-08-16T07:13:38.966Z,51.72
2018-08-16T07:14:39.438Z,51.67
2018-08-16T07:15:39.914Z,51.60
2018-08-16T07:16:40.388Z,51.54
2018-08-16T07:17:40.864Z,51.39
2018-08-16T07:18:41.380Z,51.28
2018-08-16T07:19:41.817Z,51.14
2018-08-16T07:20:42.295Z,50.99
2018-08-16T07:21:42.773Z,50.85
2018-08-16T07:22:43.249Z,50.71
2018-08-16T07:23:43.729Z,50.54
2018-08-16T07:24:44.217Z,50.43
2018-08-16T07:25:44.686Z,50.28
2018-08-16T07:26:45.168Z,50.11
2018-08-16T07:27:45.701Z,49.83
2018-08-16T07:28:46.129Z,49.45
2018-08-16T07:29:46.609Z,49.01
2018-08-16T07:30:47.090Z,48.55
2018-08-16T07:31:47.573Z,48.05
2018-08-16T07:32:48.056Z,47.57
2018-08-16T07:33:48.539Z,47.10
2018-08-16T07:34:49.022Z,46.59
2018-08-16T07:35:49.505Z,46.08
2018-08-16T07:36:49.990Z,45.54
2018-08-16T07:37:50.479Z,45.10
2018-08-16T07:38:50.960Z,44.65
2018-08-16T07:39:51.445Z,44.07
2018-08-16T07:40:51.947Z,43.71
2018-08-16T07:41:52.414Z,43.50
2018-08-16T07:42:52.900Z,43.27
2018-08-16T07:43:53.387Z,43.04
2018-08-16T07:44:53.873Z,42.88
2018-08-16T07:45:54.454Z,42.67
2018-08-16T07:46:54.848Z,42.53
2018-08-16T07:47:55.337Z,42.37
2018-08-16T07:48:55.821Z,42.26
2018-08-16T07:49:56.309Z,42.09
2018-08-16T07:50:56.805Z,41.87
2018-08-16T07:51:57.309Z,41.80
2018-08-16T07:52:57.772Z,41.67
2018-08-16T07:53:58.261Z,41.54
2018-08-16T07:54:58.749Z,41.38
2018-08-16T07:55:59.241Z,41.26
2018-08-16T07:56:59.740Z,41.24
2018-08-16T07:58:00.215Z,41.15
2018-08-16T07:59:00.705Z,41.05
2018-08-16T08:00:01.200Z,40.96
2018-08-16T08:01:01.684Z,40.77
2018-08-16T08:02:02.174Z,40.58
2018-08-16T08:03:02.666Z,40.55
2018-08-16T08:04:03.157Z,40.31
2018-08-16T08:05:03.644Z,40.20
2018-08-16T08:06:04.135Z,40.13
2018-08-16T08:07:04.633Z,39.98
2018-08-16T08:08:05.119Z,39.87
2018-08-16T08:09:05.675Z,39.77
2018-08-16T08:10:06.098Z,39.68
2018-08-16T08:11:06.590Z,39.62
2018-08-16T08:12:07.081Z,39.54
2018-08-16T08:13:07.572Z,39.46
2018-08-16T08:14:08.064Z,39.36
2018-08-16T08:15:08.557Z,39.27
2018-08-16T08:16:09.050Z,39.27
2018-08-16T08:17:09.541Z,39.24
2018-08-16T08:18:10.033Z,39.24
2018-08-16T08:19:10.527Z,39.31
2018-08-16T08:20:11.019Z,39.33
2018-08-16T08:21:11.512Z,39.29
2018-08-16T08:22:12.005Z,39.28
2018-08-16T08:23:12.499Z,39.27
2018-08-16T08:24:12.991Z,39.26
2018-08-16T08:25:13.517Z,39.27
2018-08-16T08:26:13.978Z,39.28
2018-08-16T08:27:14.472Z,39.30
2018-08-16T08:28:14.965Z,39.29
2018-08-16T08:29:15.456Z,39.30
2018-08-16T08:30:15.951Z,39.26
2018-08-16T08:31:16.447Z,39.23
2018-08-16T08:32:16.940Z,39.19
2018-08-16T08:33:17.432Z,39.16
2018-08-16T08:34:17.927Z,39.12
2018-08-16T08:35:18.422Z,39.11
2018-08-16T08:36:18.917Z,39.15
2018-08-16T08:37:19.411Z,39.22
2018-08-16T08:38:19.905Z,39.21
2018-08-16T08:39:20.401Z,39.18
2018-08-16T08:40:20.899Z,39.14
2018-08-16T08:41:21.388Z,39.16
2018-08-16T08:42:21.882Z,39.17
2018-08-16T08:43:22.378Z,39.17
2018-08-16T08:44:22.874Z,39.20
2018-08-16T08:45:23.367Z,39.27
2018-08-16T08:46:23.861Z,39.29
2018-08-16T08:47:24.357Z,39.29
2018-08-16T08:48:24.851Z,39.30
2018-08-16T08:49:25.350Z,39.33
2018-08-16T08:50:25.880Z,39.30
2018-08-16T08:51:26.334Z,39.26
2018-08-16T08:52:26.831Z,39.21
2018-08-16T08:53:27.322Z,39.19
2018-08-16T08:54:27.816Z,39.18
2018-08-16T08:55:28.308Z,39.19
2018-08-16T08:56:28.803Z,39.15
2018-08-16T08:57:29.295Z,39.16
2018-08-16T08:58:29.789Z,39.07
2018-08-16T08:59:30.313Z,39.04
2018-08-16T09:00:30.773Z,39.02
2018-08-16T09:01:31.262Z,39.03
2018-08-16T09:02:31.752Z,39.10
2018-08-16T09:03:32.243Z,39.31
2018-08-16T09:04:32.734Z,39.58
2018-08-16T09:05:33.221Z,39.90
2018-08-16T09:06:33.708Z,40.23
2018-08-16T09:07:34.197Z,40.55
2018-08-16T09:08:34.684Z,40.92
2018-08-16T09:09:35.172Z,41.27
2018-08-16T09:10:35.659Z,41.60
2018-08-16T09:11:36.143Z,41.98
2018-08-16T09:12:36.631Z,42.35
2018-08-16T09:13:37.122Z,42.73
2018-08-16T09:14:37.605Z,43.03
2018-08-16T09:15:38.089Z,43.38
2018-08-16T09:16:38.569Z,43.69
2018-08-16T09:17:39.055Z,43.99
2018-08-16T09:18:39.537Z,44.28
2018-08-16T09:19:40.019Z,44.58
2018-08-16T09:20:40.503Z,44.84
2018-08-16T09:21:40.983Z,45.09
2018-08-16T09:22:41.469Z,45.34
2018-08-16T09:23:41.949Z,45.56
2018-08-16T09:24:42.432Z,45.80
2018-08-16T09:25:42.917Z,46.02
2018-08-16T09:26:43.396Z,46.22
2018-08-16T09:27:43.876Z,46.39
2018-08-16T09:28:44.359Z,46.55
2018-08-16T09:29:44.840Z,46.72
2018-08-16T09:30:45.321Z,46.90
2018-08-16T09:31:45.799Z,47.06
2018-08-16T09:32:46.280Z,47.18
2018-08-16T09:33:46.759Z,47.28
2018-08-16T09:34:47.240Z,47.35
2018-08-16T09:35:47.720Z,47.42
2018-08-16T09:36:48.200Z,47.47
2018-08-16T09:37:48.677Z,47.49
2018-08-16T09:38:49.158Z,47.61
2018-08-16T09:39:49.718Z,47.67
2018-08-16T09:40:50.115Z,47.73
2018-08-16T09:41:50.596Z,47.79
2018-08-16T09:42:51.071Z,47.79
2018-08-16T09:43:51.552Z,47.78
2018-08-16T09:44:52.031Z,47.84
2018-08-16T09:45:52.507Z,47.90
2018-08-16T09:46:52.987Z,47.93
2018-08-16T09:47:53.465Z,48.00
2018-08-16T09:48:53.940Z,48.04
2018-08-16T09:49:54.421Z,48.03
2018-08-16T09:50:54.899Z,48.00
2018-08-16T09:51:55.373Z,47.94
2018-08-16T09:52:55.851Z,47.92
2018-08-16T09:53:56.327Z,47.89
2018-08-16T09:54:56.807Z,47.87
2018-08-16T09:55:57.282Z,47.85
2018-08-16T09:56:57.760Z,47.84
2018-08-16T09:57:58.234Z,47.82
2018-08-16T09:58:58.710Z,47.82
2018-08-16T09:59:59.190Z,47.78
2018-08-16T10:00:59.665Z,47.76
2018-08-16T10:02:00.173Z,47.77
2018-08-16T10:03:00.618Z,47.78
2018-08-16T10:04:01.095Z,47.76
2018-08-16T10:05:01.573Z,47.73
2018-08-16T10:06:02.043Z,47.71
2018-08-16T10:07:02.522Z,47.66
2018-08-16T10:08:02.997Z,47.60
2018-08-16T10:09:03.524Z,47.55
2018-08-16T10:10:03.948Z,47.48
2018-08-16T10:11:04.423Z,47.41
2018-08-16T10:12:04.900Z,47.33
2018-08-16T10:13:05.376Z,47.26
2018-08-16T10:14:05.851Z,47.17
2018-08-16T10:15:06.326Z,47.10
2018-08-16T10:16:06.808Z,47.03
2018-08-16T10:17:07.281Z,46.96
2018-08-16T10:18:07.750Z,46.90
2018-08-16T10:19:08.229Z,46.84
2018-08-16T10:20:08.702Z,46.76
2018-08-16T10:21:09.178Z,46.71
2018-08-16T10:22:09.652Z,46.65
2018-08-16T10:23:10.127Z,46.61
2018-08-16T10:24:10.602Z,46.55
2018-08-16T10:25:11.077Z,46.54
2018-08-16T10:26:11.551Z,46.48
2018-08-16T10:27:12.031Z,46.44
2018-08-16T10:28:12.501Z,46.41
2018-08-16T10:29:12.978Z,46.38
2018-08-16T10:30:13.453Z,46.33
2018-08-16T10:31:13.927Z,46.28
2018-08-16T10:32:14.403Z,46.23
2018-08-16T10:33:14.878Z,46.19
2018-08-16T10:34:15.351Z,46.16
2018-08-16T10:35:15.828Z,46.13
2018-08-16T10:36:16.315Z,46.11
2018-08-16T10:37:16.854Z,46.08
2018-08-16T10:38:17.251Z,46.05
2018-08-16T10:39:17.726Z,46.01
2018-08-16T10:40:18.205Z,45.99
2018-08-16T10:41:18.674Z,45.95
2018-08-16T10:42:19.148Z,45.91
2018-08-16T10:43:19.624Z,45.86
2018-08-16T10:44:20.105Z,45.67
2018-08-16T10:45:20.578Z,45.54
2018-08-16T10:46:21.048Z,45.29
2018-08-16T10:47:21.526Z,45.01
2018-08-16T10:48:21.996Z,44.72
2018-08-16T10:49:22.476Z,44.66
2018-08-16T10:50:22.946Z,44.70
2018-08-16T10:51:23.422Z,44.76
2018-08-16T10:52:23.897Z,44.83
2018-08-16T10:53:24.374Z,44.90
2018-08-16T10:54:24.848Z,44.99
2018-08-16T10:55:25.321Z,45.03
2018-08-16T10:56:25.797Z,45.05
2018-08-16T10:57:26.271Z,45.04
2018-08-16T10:58:26.745Z,45.02
2018-08-16T10:59:27.219Z,45.00
2018-08-16T11:00:27.695Z,45.00
2018-08-16T11:01:28.268Z,45.01
2018-08-16T11:02:28.645Z,45.02
2018-08-16T11:03:29.120Z,45.06
2018-08-16T11:04:29.795Z,44.99
2018-08-16T11:05:30.069Z,44.95
2018-08-16T11:06:30.542Z,44.90
2018-08-16T11:07:31.045Z,44.84
2018-08-16T11:08:31.495Z,44.80
2018-08-16T11:09:31.968Z,44.75
2018-08-16T11:10:32.443Z,44.71
2018-08-16T11:11:32.916Z,44.67
2018-08-16T11:12:33.395Z,44.63
2018-08-16T11:13:33.867Z,44.59
2018-08-16T11:14:34.341Z,44.54
2018-08-16T11:15:34.818Z,44.50
2018-08-16T11:16:35.291Z,44.48
2018-08-16T11:17:35.766Z,44.45
2018-08-16T11:18:36.239Z,44.46
2018-08-16T11:19:36.716Z,44.46
2018-08-16T11:20:37.190Z,44.47
2018-08-16T11:21:37.666Z,44.46
2018-08-16T11:22:38.139Z,44.46
2018-08-16T11:23:38.629Z,44.44
2018-08-16T11:24:39.090Z,44.43
2018-08-16T11:25:39.564Z,44.44
2018-08-16T11:26:40.039Z,44.43
2018-08-16T11:27:40.514Z,44.46
2018-08-16T11:28:40.989Z,44.47
2018-08-16T11:29:41.463Z,44.49
2018-08-16T11:30:41.937Z,44.50
2018-08-16T11:31:42.413Z,44.51
2018-08-16T11:32:42.887Z,44.51
2018-08-16T11:33:43.363Z,44.53
2018-08-16T11:34:43.840Z,44.52
2018-08-16T11:35:44.312Z,44.52
2018-08-16T11:36:44.792Z,44.52
2018-08-16T11:37:45.324Z,44.53
2018-08-16T11:38:45.737Z,44.53
2018-08-16T11:39:46.213Z,44.52
2018-08-16T11:41:47.164Z,44.50
2018-08-16T11:42:47.635Z,44.49
2018-08-16T11:43:48.109Z,44.47
2018-08-16T11:44:48.588Z,44.45
2018-08-16T11:45:49.061Z,44.45
2018-08-16T11:46:49.536Z,44.45
2018-08-16T11:47:50.011Z,44.45
2018-08-16T11:48:50.488Z,44.44
2018-08-16T11:49:50.960Z,44.44
2018-08-16T11:50:51.435Z,44.43
2018-08-16T11:51:51.911Z,44.43
2018-08-16T11:52:52.385Z,44.42
2018-08-16T11:53:52.860Z,44.43
2018-08-16T11:54:53.334Z,44.43
2018-08-16T11:55:53.811Z,44.42
2018-08-16T11:56:54.285Z,44.41
2018-08-16T11:57:54.760Z,44.40
2018-08-16T11:58:55.236Z,44.39
2018-08-16T11:59:55.709Z,44.39
2018-08-16T12:00:56.187Z,44.40
2018-08-16T12:01:56.728Z,44.46
2018-08-16T12:02:57.138Z,44.41
2018-08-16T12:03:57.610Z,44.40
2018-08-16T12:04:58.087Z,44.38
2018-08-16T12:05:58.566Z,44.35
2018-08-16T12:06:59.037Z,44.34
2018-08-16T12:07:59.512Z,44.34
2018-08-16T12:08:59.988Z,44.33
2018-08-16T12:10:00.464Z,44.30
2018-08-16T12:11:00.937Z,44.29
2018-08-16T12:12:01.414Z,44.30
2018-08-16T12:13:01.888Z,44.27
2018-08-16T12:14:02.364Z,44.25
2018-08-16T12:15:02.898Z,44.25
2018-08-16T12:16:03.314Z,44.24
2018-08-16T12:17:03.789Z,44.27
2018-08-16T12:18:04.265Z,44.20
2018-08-16T12:19:04.739Z,44.20
2018-08-16T12:20:05.215Z,44.18
2018-08-16T12:21:05.753Z,44.18
2018-08-16T12:22:06.172Z,44.18
2018-08-16T12:23:06.643Z,44.16
2018-08-16T12:24:07.121Z,44.15
2018-08-16T12:25:07.593Z,44.24
2018-08-16T12:26:08.069Z,44.18
2018-08-16T12:27:08.547Z,44.17
2018-08-16T12:28:09.021Z,44.15
2018-08-16T12:29:09.570Z,44.17
2018-08-16T12:30:09.973Z,44.16
2018-08-16T12:31:10.447Z,44.12
2018-08-16T12:32:10.923Z,44.15
2018-08-16T12:33:11.399Z,44.14
2018-08-16T12:34:11.874Z,44.12
2018-08-16T12:35:12.349Z,44.10
2018-08-16T12:36:12.825Z,44.08
2018-08-16T12:37:13.303Z,44.08
2018-08-16T12:38:13.784Z,44.08
2018-08-16T12:39:14.256Z,44.09
2018-08-16T12:40:14.730Z,44.12
2018-08-16T12:41:15.264Z,44.11
2018-08-16T12:42:15.755Z,44.10
2018-08-16T12:43:16.156Z,44.07
2018-08-16T12:44:16.637Z,44.07
2018-08-16T12:45:17.109Z,44.05
2018-08-16T12:46:17.601Z,44.01
2018-08-16T12:47:18.128Z,44.00
2018-08-16T12:48:18.536Z,43.99
2018-08-16T12:49:19.018Z,43.98
2018-08-16T12:50:19.490Z,43.98
2018-08-16T12:51:19.965Z,43.97
2018-08-16T12:52:20.442Z,43.98
2018-08-16T12:53:20.920Z,43.98
2018-08-16T12:54:21.395Z,43.95
2018-08-16T12:55:21.871Z,43.95
2018-08-16T12:56:22.349Z,43.94
2018-08-16T12:57:22.823Z,43.92
2018-08-16T12:58:23.301Z,43.92
2018-08-16T12:59:23.777Z,43.91